sensor_id;sensor_type;location;lat;lon;timestamp;pressure;altitude;pressure_sealevel;temperature;humidity
78149;BME280;67396;42.664;23.382;2023-08-12T00:00:16;95506.13;;;18.32;58.63
78149;BME280;67396;42.664;23.382;2023-08-12T00:02:43;95509.28;;;18.34;58.99
78149;BME280;67396;42.664;23.382;2023-08-12T00:05:10;95503.59;;;18.18;58.93
78149;BME280;67396;42.664;23.382;2023-08-12T00:07:39;95506.09;;;18.09;59.15
78149;BME280;67396;42.664;23.382;2023-08-12T00:10:10;95504.66;;;18.24;58.81
78149;BME280;67396;42.664;23.382;2023-08-12T00:12:36;95508.50;;;18.34;58.20
78149;BME280;67396;42.664;23.382;2023-08-12T00:15:04;95497.38;;;18.34;58.58
78149;BME280;67396;42.664;23.382;2023-08-12T00:17:32;95496.81;;;18.19;58.87
78149;BME280;67396;42.664;23.382;2023-08-12T00:19:57;95503.06;;;18.00;59.67
78149;BME280;67396;42.664;23.382;2023-08-12T00:22:23;95509.06;;;17.95;59.32
78149;BME280;67396;42.664;23.382;2023-08-12T00:24:49;95501.34;;;17.83;59.95
78149;BME280;67396;42.664;23.382;2023-08-12T00:27:14;95500.66;;;17.75;60.43
78149;BME280;67396;42.664;23.382;2023-08-12T00:29:39;95497.53;;;17.70;61.04
78149;BME280;67396;42.664;23.382;2023-08-12T00:32:05;95496.03;;;17.61;60.56
78149;BME280;67396;42.664;23.382;2023-08-12T00:34:30;95493.47;;;17.78;60.36
78149;BME280;67396;42.664;23.382;2023-08-12T00:36:56;95499.00;;;17.78;60.26
78149;BME280;67396;42.664;23.382;2023-08-12T00:39:21;95497.25;;;17.91;59.91
78149;BME280;67396;42.664;23.382;2023-08-12T00:41:48;95497.81;;;18.05;59.08
78149;BME280;67396;42.664;23.382;2023-08-12T00:44:13;95502.47;;;18.12;59.07
78149;BME280;67396;42.664;23.382;2023-08-12T00:46:40;95495.88;;;18.29;57.49
78149;BME280;67396;42.664;23.382;2023-08-12T00:49:06;95495.91;;;18.26;57.87
78149;BME280;67396;42.664;23.382;2023-08-12T00:51:32;95497.28;;;18.14;58.48
78149;BME280;67396;42.664;23.382;2023-08-12T00:54:02;95502.28;;;17.99;58.56
78149;BME280;67396;42.664;23.382;2023-08-12T00:56:30;95494.25;;;18.05;58.50
78149;BME280;67396;42.664;23.382;2023-08-12T00:58:57;95500.81;;;18.18;58.00
78149;BME280;67396;42.664;23.382;2023-08-12T01:01:22;95495.09;;;18.29;57.70
78149;BME280;67396;42.664;23.382;2023-08-12T01:03:48;95492.59;;;18.34;57.29
78149;BME280;67396;42.664;23.382;2023-08-12T01:06:13;95486.78;;;18.25;57.83
78149;BME280;67396;42.664;23.382;2023-08-12T01:08:39;95482.31;;;18.31;57.25
78149;BME280;67396;42.664;23.382;2023-08-12T01:11:21;95491.78;;;18.37;56.74
78149;BME280;67396;42.664;23.382;2023-08-12T01:14:08;95484.44;;;18.47;56.59
78149;BME280;67396;42.664;23.382;2023-08-12T01:16:40;95486.31;;;18.54;56.34
78149;BME280;67396;42.664;23.382;2023-08-12T01:19:10;95486.78;;;18.49;56.47
78149;BME280;67396;42.664;23.382;2023-08-12T01:21:40;95481.44;;;18.38;57.03
78149;BME280;67396;42.664;23.382;2023-08-12T01:24:07;95481.38;;;18.41;56.75
78149;BME280;67396;42.664;23.382;2023-08-12T01:26:32;95477.19;;;18.53;55.98
78149;BME280;67396;42.664;23.382;2023-08-12T01:28:58;95485.81;;;18.62;55.77
78149;BME280;67396;42.664;23.382;2023-08-12T01:31:32;95480.66;;;18.61;55.74
78149;BME280;67396;42.664;23.382;2023-08-12T01:34:08;95476.13;;;18.70;55.21
78149;BME280;67396;42.664;23.382;2023-08-12T01:36:37;95484.06;;;18.72;55.15
78149;BME280;67396;42.664;23.382;2023-08-12T01:39:06;95479.19;;;18.53;56.33
78149;BME280;67396;42.664;23.382;2023-08-12T01:41:34;95480.16;;;18.42;56.43
78149;BME280;67396;42.664;23.382;2023-08-12T01:44:01;95479.88;;;18.37;57.09
78149;BME280;67396;42.664;23.382;2023-08-12T01:46:27;95481.25;;;17.98;57.67
78149;BME280;67396;42.664;23.382;2023-08-12T01:48:53;95477.31;;;17.96;57.91
78149;BME280;67396;42.664;23.382;2023-08-12T01:51:18;95476.59;;;17.92;57.83
78149;BME280;67396;42.664;23.382;2023-08-12T01:53:44;95483.53;;;17.50;58.79
78149;BME280;67396;42.664;23.382;2023-08-12T01:56:09;95478.53;;;17.04;60.68
78149;BME280;67396;42.664;23.382;2023-08-12T01:58:34;95487.44;;;16.88;61.08
78149;BME280;67396;42.664;23.382;2023-08-12T02:01:00;95476.97;;;17.03;60.76
78149;BME280;67396;42.664;23.382;2023-08-12T02:03:25;95485.56;;;17.12;60.28
78149;BME280;67396;42.664;23.382;2023-08-12T02:05:51;95486.69;;;17.18;59.90
78149;BME280;67396;42.664;23.382;2023-08-12T02:08:16;95484.97;;;16.93;61.00
78149;BME280;67396;42.664;23.382;2023-08-12T02:10:42;95478.53;;;17.04;60.65
78149;BME280;67396;42.664;23.382;2023-08-12T02:13:07;95480.81;;;17.12;60.59
78149;BME280;67396;42.664;23.382;2023-08-12T02:15:32;95493.69;;;17.29;60.01
78149;BME280;67396;42.664;23.382;2023-08-12T02:17:58;95489.19;;;17.39;59.58
78149;BME280;67396;42.664;23.382;2023-08-12T02:20:24;95472.41;;;17.50;59.21
78149;BME280;67396;42.664;23.382;2023-08-12T02:22:49;95484.34;;;17.47;58.96
78149;BME280;67396;42.664;23.382;2023-08-12T02:25:15;95486.81;;;17.41;59.83
78149;BME280;67396;42.664;23.382;2023-08-12T02:27:40;95484.78;;;17.42;58.97
78149;BME280;67396;42.664;23.382;2023-08-12T02:30:06;95493.19;;;17.38;59.00
78149;BME280;67396;42.664;23.382;2023-08-12T02:32:32;95497.13;;;17.41;59.01
78149;BME280;67396;42.664;23.382;2023-08-12T02:34:58;95498.94;;;17.51;58.86
78149;BME280;67396;42.664;23.382;2023-08-12T02:37:23;95489.75;;;17.57;58.33
78149;BME280;67396;42.664;23.382;2023-08-12T02:39:48;95490.59;;;17.54;58.66
78149;BME280;67396;42.664;23.382;2023-08-12T02:42:14;95495.38;;;17.50;58.64
78149;BME280;67396;42.664;23.382;2023-08-12T02:44:39;95491.34;;;17.58;58.70
78149;BME280;67396;42.664;23.382;2023-08-12T02:47:04;95492.06;;;17.66;58.27
78149;BME280;67396;42.664;23.382;2023-08-12T02:49:30;95498.19;;;17.81;57.44
78149;BME280;67396;42.664;23.382;2023-08-12T02:51:55;95495.31;;;17.88;57.09
78149;BME280;67396;42.664;23.382;2023-08-12T02:54:21;95500.75;;;17.95;56.44
78149;BME280;67396;42.664;23.382;2023-08-12T02:56:46;95499.44;;;18.03;56.13
78149;BME280;67396;42.664;23.382;2023-08-12T02:59:11;95499.16;;;18.21;60.09
78149;BME280;67396;42.664;23.382;2023-08-12T03:01:37;95500.69;;;18.49;64.77
78149;BME280;67396;42.664;23.382;2023-08-12T03:04:02;95501.59;;;18.69;56.51
78149;BME280;67396;42.664;23.382;2023-08-12T03:06:28;95490.09;;;18.90;58.60
78149;BME280;67396;42.664;23.382;2023-08-12T03:08:53;95496.47;;;18.87;54.88
78149;BME280;67396;42.664;23.382;2023-08-12T03:11:19;95503.25;;;18.86;55.76
78149;BME280;67396;42.664;23.382;2023-08-12T03:13:44;95512.09;;;18.81;54.76
78149;BME280;67396;42.664;23.382;2023-08-12T03:16:13;95516.56;;;18.75;54.56
78149;BME280;67396;42.664;23.382;2023-08-12T03:18:40;95506.53;;;18.81;55.93
78149;BME280;67396;42.664;23.382;2023-08-12T03:21:09;95506.63;;;18.97;55.83
78149;BME280;67396;42.664;23.382;2023-08-12T03:23:35;95507.09;;;19.15;54.49
78149;BME280;67396;42.664;23.382;2023-08-12T03:26:02;95506.09;;;19.26;54.12
78149;BME280;67396;42.664;23.382;2023-08-12T03:28:28;95507.47;;;18.94;54.37
78149;BME280;67396;42.664;23.382;2023-08-12T03:30:54;95507.16;;;18.42;55.91
78149;BME280;67396;42.664;23.382;2023-08-12T03:33:19;95507.22;;;18.38;56.42
78149;BME280;67396;42.664;23.382;2023-08-12T03:35:48;95509.09;;;18.72;56.78
78149;BME280;67396;42.664;23.382;2023-08-12T03:38:14;95514.34;;;18.90;54.96
78149;BME280;67396;42.664;23.382;2023-08-12T03:40:41;95514.63;;;18.95;53.92
78149;BME280;67396;42.664;23.382;2023-08-12T03:43:07;95523.94;;;18.85;54.18
78149;BME280;67396;42.664;23.382;2023-08-12T03:45:33;95514.75;;;18.65;54.94
78149;BME280;67396;42.664;23.382;2023-08-12T03:48:04;95513.16;;;18.40;55.92
78149;BME280;67396;42.664;23.382;2023-08-12T03:50:33;95517.22;;;18.09;57.41
78149;BME280;67396;42.664;23.382;2023-08-12T03:52:59;95517.53;;;17.88;58.39
78149;BME280;67396;42.664;23.382;2023-08-12T03:55:24;95534.38;;;17.74;58.58
78149;BME280;67396;42.664;23.382;2023-08-12T03:57:49;95521.19;;;17.81;58.02
78149;BME280;67396;42.664;23.382;2023-08-12T04:00:15;95517.53;;;17.88;57.62
78149;BME280;67396;42.664;23.382;2023-08-12T04:02:41;95523.22;;;18.04;57.84
78149;BME280;67396;42.664;23.382;2023-08-12T04:05:08;95526.50;;;17.99;57.89
78149;BME280;67396;42.664;23.382;2023-08-12T04:07:35;95509.34;;;18.04;57.23
78149;BME280;67396;42.664;23.382;2023-08-12T04:10:01;95517.06;;;17.93;57.82
78149;BME280;67396;42.664;23.382;2023-08-12T04:12:26;95517.47;;;18.18;58.78
78149;BME280;67396;42.664;23.382;2023-08-12T04:14:52;95520.69;;;18.17;57.90
78149;BME280;67396;42.664;23.382;2023-08-12T04:17:17;95522.28;;;18.14;58.54
78149;BME280;67396;42.664;23.382;2023-08-12T04:19:43;95527.97;;;17.77;59.92
78149;BME280;67396;42.664;23.382;2023-08-12T04:22:08;95521.63;;;17.46;61.00
78149;BME280;67396;42.664;23.382;2023-08-12T04:24:33;95529.34;;;17.31;61.64
78149;BME280;67396;42.664;23.382;2023-08-12T04:26:59;95529.97;;;17.08;63.07
78149;BME280;67396;42.664;23.382;2023-08-12T04:29:24;95533.41;;;16.85;64.08
78149;BME280;67396;42.664;23.382;2023-08-12T04:31:50;95519.97;;;16.80;64.55
78149;BME280;67396;42.664;23.382;2023-08-12T04:34:17;95526.09;;;17.02;64.45
78149;BME280;67396;42.664;23.382;2023-08-12T04:36:43;95537.56;;;17.38;63.49
78149;BME280;67396;42.664;23.382;2023-08-12T04:39:08;95535.03;;;17.85;61.83
78149;BME280;67396;42.664;23.382;2023-08-12T04:41:34;95536.41;;;18.00;61.19
78149;BME280;67396;42.664;23.382;2023-08-12T04:43:59;95536.03;;;18.25;60.34
78149;BME280;67396;42.664;23.382;2023-08-12T04:46:24;95532.66;;;18.64;58.84
78149;BME280;67396;42.664;23.382;2023-08-12T04:48:50;95526.00;;;18.81;58.41
78149;BME280;67396;42.664;23.382;2023-08-12T04:51:15;95522.06;;;19.22;56.86
78149;BME280;67396;42.664;23.382;2023-08-12T04:53:40;95531.97;;;19.03;56.58
78149;BME280;67396;42.664;23.382;2023-08-12T04:56:06;95529.00;;;19.13;56.46
78149;BME280;67396;42.664;23.382;2023-08-12T04:58:32;95530.94;;;19.16;56.14
78149;BME280;67396;42.664;23.382;2023-08-12T05:00:57;95530.56;;;19.14;56.49
78149;BME280;67396;42.664;23.382;2023-08-12T05:03:23;95528.06;;;19.40;55.36
78149;BME280;67396;42.664;23.382;2023-08-12T05:05:52;95537.47;;;19.69;53.94
78149;BME280;67396;42.664;23.382;2023-08-12T05:08:18;95537.75;;;20.11;53.71
78149;BME280;67396;42.664;23.382;2023-08-12T05:10:43;95533.97;;;20.01;54.30
78149;BME280;67396;42.664;23.382;2023-08-12T05:13:09;95527.41;;;19.91;54.34
78149;BME280;67396;42.664;23.382;2023-08-12T05:15:34;95537.75;;;20.11;53.48
78149;BME280;67396;42.664;23.382;2023-08-12T05:18:02;95537.91;;;20.04;53.90
78149;BME280;67396;42.664;23.382;2023-08-12T05:20:27;95536.47;;;20.32;53.43
78149;BME280;67396;42.664;23.382;2023-08-12T05:22:53;95528.72;;;19.87;53.84
78149;BME280;67396;42.664;23.382;2023-08-12T05:25:18;95536.22;;;19.70;53.68
78149;BME280;67396;42.664;23.382;2023-08-12T05:27:44;95537.78;;;19.71;53.29
78149;BME280;67396;42.664;23.382;2023-08-12T05:30:10;95537.94;;;19.64;53.62
78149;BME280;67396;42.664;23.382;2023-08-12T05:32:36;95540.94;;;19.34;54.22
78149;BME280;67396;42.664;23.382;2023-08-12T05:35:01;95537.69;;;19.15;55.03
78149;BME280;67396;42.664;23.382;2023-08-12T05:37:26;95540.69;;;19.44;55.29
78149;BME280;67396;42.664;23.382;2023-08-12T05:39:52;95545.84;;;19.46;54.56
78149;BME280;67396;42.664;23.382;2023-08-12T05:42:17;95541.78;;;19.31;53.76
78149;BME280;67396;42.664;23.382;2023-08-12T05:44:42;95545.50;;;19.24;55.29
78149;BME280;67396;42.664;23.382;2023-08-12T05:47:08;95549.28;;;19.34;54.49
78149;BME280;67396;42.664;23.382;2023-08-12T05:49:34;95541.03;;;19.27;54.51
78149;BME280;67396;42.664;23.382;2023-08-12T05:51:59;95545.59;;;19.60;53.83
78149;BME280;67396;42.664;23.382;2023-08-12T05:54:24;95536.88;;;20.14;52.77
78149;BME280;67396;42.664;23.382;2023-08-12T05:56:50;95530.03;;;20.35;52.25
78149;BME280;67396;42.664;23.382;2023-08-12T05:59:15;95536.38;;;20.19;51.47
78149;BME280;67396;42.664;23.382;2023-08-12T06:01:41;95533.13;;;20.04;50.69
78149;BME280;67396;42.664;23.382;2023-08-12T06:04:06;95536.16;;;20.10;51.30
78149;BME280;67396;42.664;23.382;2023-08-12T06:06:31;95532.06;;;20.50;50.32
78149;BME280;67396;42.664;23.382;2023-08-12T06:08:57;95529.38;;;20.63;49.80
78149;BME280;67396;42.664;23.382;2023-08-12T06:11:23;95525.00;;;20.62;49.61
78149;BME280;67396;42.664;23.382;2023-08-12T06:13:48;95521.84;;;20.76;49.98
78149;BME280;67396;42.664;23.382;2023-08-12T06:16:13;95525.72;;;21.11;48.99
78149;BME280;67396;42.664;23.382;2023-08-12T06:18:39;95535.44;;;21.07;48.67
78149;BME280;67396;42.664;23.382;2023-08-12T06:21:04;95522.03;;;21.30;48.57
78149;BME280;67396;42.664;23.382;2023-08-12T06:23:29;95519.81;;;21.67;47.17
78149;BME280;67396;42.664;23.382;2023-08-12T06:25:55;95525.28;;;21.58;47.45
78149;BME280;67396;42.664;23.382;2023-08-12T06:28:20;95524.78;;;21.47;47.42
78149;BME280;67396;42.664;23.382;2023-08-12T06:30:46;95525.16;;;20.87;48.14
78149;BME280;67396;42.664;23.382;2023-08-12T06:33:14;95521.91;;;21.21;48.67
78149;BME280;67396;42.664;23.382;2023-08-12T06:35:39;95519.41;;;21.39;47.64
78149;BME280;67396;42.664;23.382;2023-08-12T06:38:05;95517.03;;;21.09;47.61
78149;BME280;67396;42.664;23.382;2023-08-12T06:40:30;95514.94;;;20.97;48.51
78149;BME280;67396;42.664;23.382;2023-08-12T06:42:56;95514.72;;;21.36;48.10
78149;BME280;67396;42.664;23.382;2023-08-12T06:45:22;95509.66;;;21.31;47.77
78149;BME280;67396;42.664;23.382;2023-08-12T06:47:47;95509.41;;;21.55;47.46
78149;BME280;67396;42.664;23.382;2023-08-12T06:50:13;95498.56;;;22.36;45.60
78149;BME280;67396;42.664;23.382;2023-08-12T06:52:38;95500.69;;;22.58;45.14
78149;BME280;67396;42.664;23.382;2023-08-12T06:55:04;95500.09;;;21.99;45.48
78149;BME280;67396;42.664;23.382;2023-08-12T06:57:29;95493.09;;;22.33;45.28
78149;BME280;67396;42.664;23.382;2023-08-12T06:59:55;95499.88;;;22.57;45.55
78149;BME280;67396;42.664;23.382;2023-08-12T07:02:20;95496.44;;;23.13;44.32
78149;BME280;67396;42.664;23.382;2023-08-12T07:04:45;95498.81;;;23.02;44.33
78149;BME280;67396;42.664;23.382;2023-08-12T07:07:11;95497.13;;;23.39;43.25
78149;BME280;67396;42.664;23.382;2023-08-12T07:10:17;95489.66;;;23.23;43.16
78149;BME280;67396;42.664;23.382;2023-08-12T07:13:00;95496.91;;;23.33;42.65
78149;BME280;67396;42.664;23.382;2023-08-12T07:15:25;95492.97;;;23.65;41.25
78149;BME280;67396;42.664;23.382;2023-08-12T07:17:51;95496.50;;;24.09;40.74
78149;BME280;67396;42.664;23.382;2023-08-12T07:20:16;95498.59;;;23.96;39.70
78149;BME280;67396;42.664;23.382;2023-08-12T07:22:45;95492.09;;;23.77;40.15
78149;BME280;67396;42.664;23.382;2023-08-12T07:25:13;95490.75;;;23.82;40.97
78149;BME280;67396;42.664;23.382;2023-08-12T07:27:38;95484.94;;;24.07;41.00
78149;BME280;67396;42.664;23.382;2023-08-12T07:30:04;95493.16;;;23.71;41.27
78149;BME280;67396;42.664;23.382;2023-08-12T07:32:30;95485.44;;;23.84;40.64
78149;BME280;67396;42.664;23.382;2023-08-12T07:34:55;95489.00;;;24.06;40.32
78149;BME280;67396;42.664;23.382;2023-08-12T07:37:20;95490.28;;;24.14;39.81
78149;BME280;67396;42.664;23.382;2023-08-12T07:39:46;95494.38;;;23.91;39.07
78149;BME280;67396;42.664;23.382;2023-08-12T07:42:14;95488.72;;;24.13;38.95
78149;BME280;67396;42.664;23.382;2023-08-12T07:44:39;95486.16;;;24.77;38.58
78149;BME280;67396;42.664;23.382;2023-08-12T07:47:05;95478.25;;;24.35;39.49
78149;BME280;67396;42.664;23.382;2023-08-12T07:49:30;95480.53;;;24.77;39.18
78149;BME280;67396;42.664;23.382;2023-08-12T07:51:55;95479.06;;;25.13;38.51
78149;BME280;67396;42.664;23.382;2023-08-12T07:54:21;95474.28;;;24.73;38.86
78149;BME280;67396;42.664;23.382;2023-08-12T07:56:46;95466.88;;;24.39;40.16
78149;BME280;67396;42.664;23.382;2023-08-12T07:59:12;95470.78;;;24.42;39.31
78149;BME280;67396;42.664;23.382;2023-08-12T08:01:37;95464.41;;;24.19;38.85
78149;BME280;67396;42.664;23.382;2023-08-12T08:04:03;95471.13;;;24.53;38.86
78149;BME280;67396;42.664;23.382;2023-08-12T08:06:28;95465.69;;;24.67;38.67
78149;BME280;67396;42.664;23.382;2023-08-12T08:08:54;95465.25;;;24.69;38.41
78149;BME280;67396;42.664;23.382;2023-08-12T08:11:20;95466.59;;;25.32;37.62
78149;BME280;67396;42.664;23.382;2023-08-12T08:13:46;95462.75;;;25.90;36.94
78149;BME280;67396;42.664;23.382;2023-08-12T08:16:11;95470.94;;;25.60;36.61
78149;BME280;67396;42.664;23.382;2023-08-12T08:18:37;95466.50;;;25.96;35.34
78149;BME280;67396;42.664;23.382;2023-08-12T08:21:02;95466.41;;;26.23;34.73
78149;BME280;67396;42.664;23.382;2023-08-12T08:23:28;95466.66;;;26.01;34.75
78149;BME280;67396;42.664;23.382;2023-08-12T08:25:53;95460.50;;;26.21;34.49
78149;BME280;67396;42.664;23.382;2023-08-12T08:28:19;95461.38;;;26.36;33.47
78149;BME280;67396;42.664;23.382;2023-08-12T08:30:44;95457.28;;;26.46;33.46
78149;BME280;67396;42.664;23.382;2023-08-12T08:33:09;95459.69;;;26.63;32.46
78149;BME280;67396;42.664;23.382;2023-08-12T08:35:35;95454.81;;;26.96;32.55
78149;BME280;67396;42.664;23.382;2023-08-12T08:38:00;95456.47;;;27.03;31.52
78149;BME280;67396;42.664;23.382;2023-08-12T08:40:26;95453.97;;;27.05;31.71
78149;BME280;67396;42.664;23.382;2023-08-12T08:42:53;95445.00;;;26.58;32.53
78149;BME280;67396;42.664;23.382;2023-08-12T08:45:20;95450.28;;;26.89;32.49
78149;BME280;67396;42.664;23.382;2023-08-12T08:47:47;95451.03;;;26.99;32.60
78149;BME280;67396;42.664;23.382;2023-08-12T08:50:13;95442.44;;;27.17;31.88
78149;BME280;67396;42.664;23.382;2023-08-12T08:52:39;95441.75;;;27.22;31.11
78149;BME280;67396;42.664;23.382;2023-08-12T08:55:05;95442.06;;;27.24;31.20
78149;BME280;67396;42.664;23.382;2023-08-12T08:57:31;95440.13;;;27.30;31.03
78149;BME280;67396;42.664;23.382;2023-08-12T08:59:57;95438.88;;;27.31;30.90
78149;BME280;67396;42.664;23.382;2023-08-12T09:02:23;95442.81;;;27.63;30.90
78149;BME280;67396;42.664;23.382;2023-08-12T09:04:49;95431.75;;;27.60;30.71
78149;BME280;67396;42.664;23.382;2023-08-12T09:07:15;95435.94;;;27.64;30.39
78149;BME280;67396;42.664;23.382;2023-08-12T09:09:47;95433.69;;;27.83;30.01
78149;BME280;67396;42.664;23.382;2023-08-12T09:12:15;95428.53;;;27.82;30.34
78149;BME280;67396;42.664;23.382;2023-08-12T09:14:42;95427.03;;;27.42;31.22
78149;BME280;67396;42.664;23.382;2023-08-12T09:17:08;95421.25;;;27.22;31.05
78149;BME280;67396;42.664;23.382;2023-08-12T09:19:34;95426.34;;;26.37;32.77
78149;BME280;67396;42.664;23.382;2023-08-12T09:21:59;95421.88;;;26.54;32.56
78149;BME280;67396;42.664;23.382;2023-08-12T09:24:27;95411.63;;;26.66;31.82
78149;BME280;67396;42.664;23.382;2023-08-12T09:26:55;95413.00;;;26.71;31.40
78149;BME280;67396;42.664;23.382;2023-08-12T09:29:30;95406.53;;;27.03;31.75
78149;BME280;67396;42.664;23.382;2023-08-12T09:32:12;95399.56;;;26.66;33.19
78149;BME280;67396;42.664;23.382;2023-08-12T09:34:46;95407.66;;;26.16;33.06
78149;BME280;67396;42.664;23.382;2023-08-12T09:37:13;95394.53;;;26.70;32.27
78149;BME280;67396;42.664;23.382;2023-08-12T09:39:39;95399.06;;;27.00;31.74
78149;BME280;67396;42.664;23.382;2023-08-12T09:42:05;95389.53;;;27.12;30.70
78149;BME280;67396;42.664;23.382;2023-08-12T09:44:30;95388.31;;;27.28;30.16
78149;BME280;67396;42.664;23.382;2023-08-12T09:46:59;95385.31;;;27.46;30.16
78149;BME280;67396;42.664;23.382;2023-08-12T09:49:25;95381.53;;;27.49;29.48
78149;BME280;67396;42.664;23.382;2023-08-12T09:51:51;95387.53;;;27.27;30.03
78149;BME280;67396;42.664;23.382;2023-08-12T09:54:17;95385.09;;;27.20;30.30
78149;BME280;67396;42.664;23.382;2023-08-12T09:56:47;95380.16;;;27.45;29.96
78149;BME280;67396;42.664;23.382;2023-08-12T09:59:18;95384.69;;;27.27;30.49
78149;BME280;67396;42.664;23.382;2023-08-12T10:01:45;95378.97;;;26.59;31.30
78149;BME280;67396;42.664;23.382;2023-08-12T10:04:11;95375.34;;;26.83;31.52
78149;BME280;67396;42.664;23.382;2023-08-12T10:06:40;95371.78;;;27.35;31.05
78149;BME280;67396;42.664;23.382;2023-08-12T10:09:06;95365.19;;;27.83;30.25
78149;BME280;67396;42.664;23.382;2023-08-12T10:11:34;95362.69;;;27.55;30.15
78149;BME280;67396;42.664;23.382;2023-08-12T10:14:03;95361.13;;;27.69;29.29
78149;BME280;67396;42.664;23.382;2023-08-12T10:16:29;95365.03;;;27.57;30.70
78149;BME280;67396;42.664;23.382;2023-08-12T10:18:56;95361.28;;;27.21;30.91
78149;BME280;67396;42.664;23.382;2023-08-12T10:21:23;95358.25;;;26.86;30.76
78149;BME280;67396;42.664;23.382;2023-08-12T10:23:50;95363.25;;;26.68;30.43
78149;BME280;67396;42.664;23.382;2023-08-12T10:26:17;95359.00;;;26.48;30.78
78149;BME280;67396;42.664;23.382;2023-08-12T10:28:43;95356.03;;;26.28;30.90
78149;BME280;67396;42.664;23.382;2023-08-12T10:31:11;95349.22;;;26.11;31.09
78149;BME280;67396;42.664;23.382;2023-08-12T10:33:40;95357.47;;;25.81;31.74
78149;BME280;67396;42.664;23.382;2023-08-12T10:36:06;95353.19;;;25.35;31.97
78149;BME280;67396;42.664;23.382;2023-08-12T10:38:32;95347.63;;;24.98;33.53
78149;BME280;67396;42.664;23.382;2023-08-12T10:41:31;95340.47;;;24.97;33.43
78149;BME280;67396;42.664;23.382;2023-08-12T10:44:03;95337.03;;;25.02;34.16
78149;BME280;67396;42.664;23.382;2023-08-12T10:46:36;95339.06;;;25.02;33.33
78149;BME280;67396;42.664;23.382;2023-08-12T10:49:07;95338.91;;;25.15;32.39
78149;BME280;67396;42.664;23.382;2023-08-12T10:51:45;95329.84;;;25.10;31.77
78149;BME280;67396;42.664;23.382;2023-08-12T10:54:24;95329.69;;;24.78;31.82
78149;BME280;67396;42.664;23.382;2023-08-12T11:02:33;95321.44;;;24.92;33.83
78149;BME280;67396;42.664;23.382;2023-08-12T11:05:12;95319.25;;;24.87;33.23
78149;BME280;67396;42.664;23.382;2023-08-12T11:10:25;95305.22;;;24.69;34.19
78149;BME280;67396;42.664;23.382;2023-08-12T11:15:17;95308.78;;;24.88;33.63
78149;BME280;67396;42.664;23.382;2023-08-12T11:17:46;95298.94;;;25.01;32.92
78149;BME280;67396;42.664;23.382;2023-08-12T11:20:13;95311.41;;;25.09;33.01
78149;BME280;67396;42.664;23.382;2023-08-12T11:22:40;95315.66;;;25.05;32.72
78149;BME280;67396;42.664;23.382;2023-08-12T11:25:08;95310.50;;;25.13;31.42
78149;BME280;67396;42.664;23.382;2023-08-12T11:27:42;95303.00;;;25.09;32.01
78149;BME280;67396;42.664;23.382;2023-08-12T11:30:09;95302.97;;;25.19;31.22
78149;BME280;67396;42.664;23.382;2023-08-12T11:32:36;95299.53;;;25.24;31.33
78149;BME280;67396;42.664;23.382;2023-08-12T11:35:03;95298.88;;;25.29;30.38
78149;BME280;67396;42.664;23.382;2023-08-12T11:37:29;95300.44;;;25.39;30.21
78149;BME280;67396;42.664;23.382;2023-08-12T11:39:54;95293.53;;;25.49;30.36
78149;BME280;67396;42.664;23.382;2023-08-12T11:42:20;95297.28;;;25.46;30.67
78149;BME280;67396;42.664;23.382;2023-08-12T11:44:45;95289.47;;;25.50;28.40
78149;BME280;67396;42.664;23.382;2023-08-12T11:47:11;95286.00;;;25.55;28.46
78149;BME280;67396;42.664;23.382;2023-08-12T11:49:36;95287.56;;;25.56;26.82
78149;BME280;67396;42.664;23.382;2023-08-12T11:52:02;95293.66;;;25.55;26.56
78149;BME280;67396;42.664;23.382;2023-08-12T11:54:28;95297.75;;;25.44;26.88
78149;BME280;67396;42.664;23.382;2023-08-12T11:56:54;95288.72;;;25.40;27.19
78149;BME280;67396;42.664;23.382;2023-08-12T11:59:22;95296.34;;;25.49;27.38
78149;BME280;67396;42.664;23.382;2023-08-12T12:01:50;95283.06;;;25.49;26.76
78149;BME280;67396;42.664;23.382;2023-08-12T12:04:16;95272.25;;;25.57;27.74
78149;BME280;67396;42.664;23.382;2023-08-12T12:06:45;95274.91;;;25.61;28.73
78149;BME280;67396;42.664;23.382;2023-08-12T12:09:10;95280.53;;;25.61;29.18
78149;BME280;67396;42.664;23.382;2023-08-12T12:11:37;95279.13;;;25.65;29.36
78149;BME280;67396;42.664;23.382;2023-08-12T12:14:03;95274.91;;;25.61;29.49
78149;BME280;67396;42.664;23.382;2023-08-12T12:16:41;95268.66;;;25.66;29.62
78149;BME280;67396;42.664;23.382;2023-08-12T12:19:15;95270.78;;;25.71;30.10
78149;BME280;67396;42.664;23.382;2023-08-12T12:21:42;95262.00;;;25.78;30.56
78149;BME280;67396;42.664;23.382;2023-08-12T12:24:08;95264.66;;;25.81;29.94
78149;BME280;67396;42.664;23.382;2023-08-12T12:26:34;95270.00;;;25.70;29.45
78149;BME280;67396;42.664;23.382;2023-08-12T12:29:01;95273.19;;;25.63;29.64
78149;BME280;67396;42.664;23.382;2023-08-12T12:31:26;95268.50;;;25.51;29.75
78149;BME280;67396;42.664;23.382;2023-08-12T12:33:52;95256.97;;;25.49;32.10
78149;BME280;67396;42.664;23.382;2023-08-12T12:36:18;95262.56;;;25.58;31.93
78149;BME280;67396;42.664;23.382;2023-08-12T12:38:43;95257.56;;;25.62;32.60
78149;BME280;67396;42.664;23.382;2023-08-12T12:41:08;95248.78;;;25.69;32.79
78149;BME280;67396;42.664;23.382;2023-08-12T12:43:34;95247.53;;;25.70;32.98
78149;BME280;67396;42.664;23.382;2023-08-12T12:45:59;95244.91;;;25.67;31.95
78149;BME280;67396;42.664;23.382;2023-08-12T12:48:25;95241.84;;;25.46;31.84
78149;BME280;67396;42.664;23.382;2023-08-12T12:50:50;95240.00;;;25.34;32.07
78149;BME280;67396;42.664;23.382;2023-08-12T12:53:16;95236.88;;;25.41;32.18
78149;BME280;67396;42.664;23.382;2023-08-12T12:55:42;95235.56;;;25.52;33.07
78149;BME280;67396;42.664;23.382;2023-08-12T12:58:07;95238.88;;;25.50;32.86